Time;durP1;ratioP1;P1;durP2;ratioP2;P2;SDS_P1;SDS_P2;PMS_P1;PMS_P2;Temp;Humidity;BMP_temperature;BMP_pressure;BME280_temperature;BME280_humidity;BME280_pressure;Samples;Min_cycle;Max_cycle;Signal;HPM_P1;HPM_P2
2020/12/22 00:00:12;;;;;;;1.65;0.80;;;10.80;99.80;;;;;;6179009;28;20046;-80
2020/12/22 00:03:13;;;;;;;0.52;0.45;;;10.90;99.60;;;;;;6178997;28;20046;-79
2020/12/22 00:06:22;;;;;;;0.82;0.77;;;11.00;99.00;;;;;;6178883;28;20043;-80
2020/12/22 00:09:23;;;;;;;1.40;0.73;;;11.00;99.00;;;;;;6177655;28;20051;-79
2020/12/22 00:12:24;;;;;;;0.55;0.50;;;11.10;98.70;;;;;;6179015;28;20177;-81
2020/12/22 00:15:26;;;;;;;4.18;0.80;;;11.10;98.60;;;;;;6177191;28;20081;-80
2020/12/22 00:18:27;;;;;;;1.58;1.48;;;11.20;98.30;;;;;;6178525;28;20046;-80
2020/12/22 00:21:31;;;;;;;0.65;0.63;;;11.20;98.20;;;;;;6178742;28;20066;-80
2020/12/22 00:24:32;;;;;;;2.15;0.65;;;11.20;97.70;;;;;;6177486;28;20105;-81
2020/12/22 00:27:34;;;;;;;0.50;0.50;;;11.30;97.70;;;;;;6176254;28;20457;-81
2020/12/22 00:30:35;;;;;;;2.33;0.57;;;11.30;97.50;;;;;;6176035;28;20066;-80
2020/12/22 00:33:37;;;;;;;1.15;0.68;;;11.40;97.10;;;;;;6176651;28;20154;-80
2020/12/22 00:36:39;;;;;;;1.02;0.47;;;11.40;96.60;;;;;;6176067;28;20047;-80
2020/12/22 00:39:40;;;;;;;0.50;0.50;;;11.50;96.50;;;;;;6177898;28;20054;-80
2020/12/22 00:42:41;;;;;;;0.93;0.50;;;11.50;96.30;;;;;;6176464;28;20097;-79
2020/12/22 00:45:43;;;;;;;0.60;0.60;;;11.50;96.00;;;;;;6175454;28;20099;-79
2020/12/22 00:48:45;;;;;;;0.55;0.55;;;11.50;95.90;;;;;;6175919;28;20050;-80
2020/12/22 00:51:48;;;;;;;3.08;0.60;;;11.50;95.90;;;;;;6176652;28;20517;-81
2020/12/22 00:54:49;;;;;;;2.72;1.10;;;11.50;95.90;;;;;;6175955;28;20497;-80
2020/12/22 00:57:51;;;;;;;0.55;0.55;;;11.50;95.70;;;;;;6175457;28;20046;-80
2020/12/22 01:00:53;;;;;;;2.30;0.55;;;11.60;95.30;;;;;;6176199;28;20059;-79
2020/12/22 01:03:54;;;;;;;0.93;0.50;;;11.70;95.20;;;;;;6176262;28;20130;-80
2020/12/22 01:06:56;;;;;;;1.55;0.50;;;11.70;94.90;;;;;;6177546;28;20469;-80
2020/12/22 01:09:57;;;;;;;1.48;0.47;;;11.70;94.70;;;;;;6178601;28;20134;-80
2020/12/22 01:12:58;;;;;;;0.30;0.30;;;11.80;94.40;;;;;;6179019;28;20417;-80
2020/12/22 01:16:00;;;;;;;0.45;0.45;;;11.90;94.00;;;;;;6179145;28;20061;-81
2020/12/22 01:19:01;;;;;;;2.47;0.45;;;12.00;93.80;;;;;;6177889;28;20122;-80
2020/12/22 01:22:03;;;;;;;0.45;0.38;;;12.10;93.70;;;;;;6177532;28;20691;-78
2020/12/22 01:25:05;;;;;;;0.25;0.25;;;12.10;93.60;;;;;;6175562;28;20508;-77
2020/12/22 01:28:06;;;;;;;0.80;0.80;;;12.20;93.40;;;;;;6175699;28;20051;-78
2020/12/22 01:31:07;;;;;;;1.75;0.32;;;12.30;93.40;;;;;;6174598;28;20046;-77
2020/12/22 01:34:08;;;;;;;0.20;0.20;;;12.30;93.00;;;;;;6175796;28;20047;-78
2020/12/22 01:37:14;;;;;;;0.68;0.30;;;12.40;92.80;;;;;;6174951;28;20135;-78
2020/12/22 01:40:15;;;;;;;0.45;0.40;;;12.40;92.80;;;;;;6176041;28;20507;-78
2020/12/22 01:43:16;;;;;;;0.98;0.98;;;12.50;92.30;;;;;;6174400;28;20452;-78
2020/12/22 01:46:18;;;;;;;0.60;0.40;;;12.60;92.30;;;;;;6174108;28;20121;-78
2020/12/22 01:49:23;;;;;;;0.50;0.50;;;12.60;92.10;;;;;;6194781;28;20162;-78
2020/12/22 01:52:25;;;;;;;3.45;1.50;;;12.60;92.20;;;;;;6202126;28;20093;-76
2020/12/22 01:55:27;;;;;;;0.95;0.30;;;12.70;92.10;;;;;;6200793;28;20061;-78
2020/12/22 01:58:28;;;;;;;0.40;0.20;;;12.60;92.30;;;;;;6198610;28;20088;-78
2020/12/22 02:01:31;;;;;;;0.38;0.25;;;12.70;92.30;;;;;;6201762;28;20058;-78
2020/12/22 02:04:35;;;;;;;0.45;0.45;;;12.80;93.10;;;;;;6201592;28;20156;-77
2020/12/22 02:07:37;;;;;;;0.68;0.40;;;12.70;92.30;;;;;;6200863;28;20125;-77
2020/12/22 02:10:50;;;;;;;0.20;0.20;;;12.70;92.20;;;;;;6201593;28;20046;-77
2020/12/22 02:13:51;;;;;;;0.50;0.50;;;12.70;92.70;;;;;;6201473;28;20471;-77
2020/12/22 02:16:53;;;;;;;0.30;0.30;;;12.60;92.60;;;;;;6200466;28;20062;-77
2020/12/22 02:19:54;;;;;;;0.30;0.30;;;12.60;92.50;;;;;;6201175;28;20086;-78
2020/12/22 02:22:56;;;;;;;0.57;0.32;;;12.60;92.40;;;;;;6199850;28;20046;-77
2020/12/22 02:25:57;;;;;;;0.45;0.30;;;12.60;92.20;;;;;;6199699;28;20138;-78
2020/12/22 02:28:59;;;;;;;0.35;0.35;;;12.60;92.70;;;;;;6199262;28;20535;-79
2020/12/22 02:32:00;;;;;;;0.63;0.63;;;12.60;92.90;;;;;;6198975;28;20153;-78
2020/12/22 02:35:02;;;;;;;0.47;0.30;;;12.60;93.10;;;;;;6196792;28;20046;-77
2020/12/22 02:38:04;;;;;;;2.70;0.70;;;12.60;93.20;;;;;;6196103;28;20134;-77
2020/12/22 02:41:07;;;;;;;0.68;0.30;;;12.60;93.30;;;;;;6196671;28;20053;-77
2020/12/22 02:44:08;;;;;;;0.60;0.35;;;12.60;93.50;;;;;;6196453;28;20562;-76
2020/12/22 02:47:12;;;;;;;0.15;0.15;;;12.60;93.50;;;;;;6195704;28;20038;-77
2020/12/22 02:50:13;;;;;;;0.30;0.30;;;12.60;93.40;;;;;;6196720;28;20137;-78
2020/12/22 02:53:15;;;;;;;0.10;0.10;;;12.60;93.40;;;;;;6201429;28;20058;-78
2020/12/22 02:56:16;;;;;;;0.90;0.40;;;12.60;93.40;;;;;;6205261;28;20142;-79
2020/12/22 02:59:18;;;;;;;0.80;0.65;;;12.60;93.50;;;;;;6205443;28;20521;-77
2020/12/22 03:02:19;;;;;;;0.32;0.32;;;12.60;93.70;;;;;;6205536;28;20102;-78
2020/12/22 03:05:20;;;;;;;1.25;0.30;;;12.60;93.80;;;;;;6205959;28;20053;-78
2020/12/22 03:08:23;;;;;;;0.77;0.40;;;12.70;96.30;;;;;;6205130;28;20137;-78
2020/12/22 03:11:24;;;;;;;0.93;0.50;;;12.60;93.70;;;;;;6205156;28;20053;-78
2020/12/22 03:14:25;;;;;;;0.43;0.30;;;12.60;93.60;;;;;;6205753;28;20050;-79
2020/12/22 03:17:27;;;;;;;0.40;0.30;;;12.60;93.80;;;;;;6205005;28;20046;-79
2020/12/22 03:20:28;;;;;;;0.50;0.30;;;12.60;93.70;;;;;;6207137;28;20065;-78
2020/12/22 03:23:30;;;;;;;0.28;0.28;;;12.70;93.30;;;;;;6206014;28;20052;-79
2020/12/22 03:26:31;;;;;;;0.40;0.38;;;12.70;93.20;;;;;;6206497;28;20129;-79
2020/12/22 03:29:33;;;;;;;0.45;0.45;;;12.70;93.20;;;;;;6206862;28;20074;-79
2020/12/22 03:32:34;;;;;;;0.82;0.82;;;12.70;92.90;;;;;;6207646;28;20046;-78
2020/12/22 03:35:35;;;;;;;0.22;0.22;;;12.70;93.00;;;;;;6209919;28;20514;-79
2020/12/22 03:38:37;;;;;;;1.35;0.40;;;12.70;92.90;;;;;;6204685;28;20125;-79
2020/12/22 03:41:39;;;;;;;1.23;0.50;;;12.80;92.70;;;;;;6205916;28;20046;-78
2020/12/22 03:44:40;;;;;;;0.90;0.70;;;12.80;92.70;;;;;;6205457;28;20141;-79
2020/12/22 03:47:41;;;;;;;0.40;0.40;;;12.90;92.50;;;;;;6203835;28;20050;-79
2020/12/22 03:50:42;;;;;;;0.30;0.30;;;12.90;92.60;;;;;;6204795;28;20050;-79
2020/12/22 03:53:45;;;;;;;0.57;0.32;;;12.90;92.50;;;;;;6205351;28;20042;-80
2020/12/22 03:56:46;;;;;;;0.17;0.17;;;12.90;92.40;;;;;;6203869;28;20042;-80
2020/12/22 03:59:47;;;;;;;0.40;0.40;;;13.00;92.40;;;;;;6204674;28;20573;-79
2020/12/22 04:02:49;;;;;;;0.82;0.73;;;13.00;92.20;;;;;;6204537;28;20042;-79
2020/12/22 04:05:50;;;;;;;1.05;0.60;;;13.00;92.40;;;;;;6203269;28;20042;-79
2020/12/22 04:08:53;;;;;;;1.70;0.40;;;13.00;92.40;;;;;;6203712;28;20137;-77
2020/12/22 04:11:55;;;;;;;0.52;0.50;;;13.00;92.10;;;;;;6203727;28;20310;-79
2020/12/22 04:14:56;;;;;;;0.32;0.32;;;13.00;92.30;;;;;;6204133;28;20050;-78
2020/12/22 04:17:57;;;;;;;0.38;0.30;;;13.10;92.40;;;;;;6202079;28;20129;-78
2020/12/22 04:20:59;;;;;;;2.17;0.20;;;13.00;92.50;;;;;;6202912;28;20488;-79
2020/12/22 04:24:02;;;;;;;0.30;0.30;;;13.20;93.60;;;;;;6204733;28;20050;-78
2020/12/22 04:27:04;;;;;;;0.20;0.20;;;13.00;92.50;;;;;;6202285;28;20058;-79
2020/12/22 04:30:05;;;;;;;0.73;0.40;;;13.00;92.90;;;;;;6203392;28;20125;-79
2020/12/22 04:33:07;;;;;;;0.30;0.30;;;;;;;;;;6202227;28;20066;-79
2020/12/22 04:36:08;;;;;;;0.45;0.30;;;12.90;94.00;;;;;;6202696;28;20053;-76
2020/12/22 04:39:10;;;;;;;0.57;0.40;;;12.90;94.40;;;;;;6202890;28;20057;-77
2020/12/22 04:42:13;;;;;;;0.32;0.30;;;12.80;94.80;;;;;;6203143;28;20132;-78
2020/12/22 04:45:15;;;;;;;2.53;0.20;;;12.70;95.30;;;;;;6203315;28;20054;-78
2020/12/22 04:48:19;;;;;;;1.42;0.50;;;12.60;95.50;;;;;;6202216;28;20520;-79
2020/12/22 04:51:22;;;;;;;0.30;0.30;;;12.60;95.90;;;;;;6203015;28;20531;-79
2020/12/22 04:54:25;;;;;;;0.30;0.30;;;12.60;95.70;;;;;;6203854;28;20062;-79
2020/12/22 04:57:31;;;;;;;0.70;0.30;;;12.60;95.70;;;;;;6202459;28;20570;-79
2020/12/22 05:00:32;;;;;;;0.32;0.30;;;12.70;95.90;;;;;;6203195;28;20062;-78
2020/12/22 05:03:34;;;;;;;2.17;0.25;;;12.70;96.00;;;;;;6202466;28;20046;-80
2020/12/22 05:06:35;;;;;;;0.52;0.20;;;12.60;96.00;;;;;;6202503;28;20048;-79
2020/12/22 05:09:37;;;;;;;0.60;0.30;;;12.70;98.00;;;;;;6202637;28;20106;-79
2020/12/22 05:12:40;;;;;;;0.20;0.10;;;12.70;95.50;;;;;;6202426;28;20082;-78
2020/12/22 05:15:42;;;;;;;0.20;0.20;;;12.80;94.80;;;;;;6200439;28;20109;-79
2020/12/22 05:18:44;;;;;;;2.35;0.20;;;12.80;94.90;;;;;;6201287;28;20054;-79
2020/12/22 05:21:47;;;;;;;1.08;0.30;;;12.80;94.60;;;;;;6201484;28;20074;-79
2020/12/22 05:24:51;;;;;;;0.30;0.30;;;12.90;94.60;;;;;;6202768;28;20050;-78
2020/12/22 05:27:53;;;;;;;0.45;0.40;;;12.90;94.70;;;;;;6203965;28;20122;-78
2020/12/22 05:30:54;;;;;;;0.90;0.20;;;12.90;94.50;;;;;;6203105;28;20051;-79
2020/12/22 05:33:56;;;;;;;0.22;0.22;;;13.00;94.40;;;;;;6202585;28;20096;-79
2020/12/22 05:36:59;;;;;;;1.00;0.45;;;13.40;94.10;;;;;;6199117;28;20177;-78
2020/12/22 05:40:08;;;;;;;0.28;0.28;;;13.00;93.70;;;;;;6200006;28;20069;-79
2020/12/22 05:43:12;;;;;;;0.52;0.40;;;13.20;93.30;;;;;;6201591;28;20453;-78
2020/12/22 05:46:13;;;;;;;0.20;0.20;;;13.20;93.10;;;;;;6199606;28;20536;-77
2020/12/22 05:49:15;;;;;;;1.38;0.70;;;13.20;93.20;;;;;;6197942;28;20481;-79
2020/12/22 05:52:16;;;;;;;0.30;0.20;;;13.20;93.10;;;;;;6198532;28;20053;-79
2020/12/22 05:55:26;;;;;;;0.40;0.40;;;13.30;92.90;;;;;;6198476;28;20046;-79
2020/12/22 05:58:30;;;;;;;0.20;0.20;;;;;;;;;;6197842;28;20069;-78
2020/12/22 06:01:34;;;;;;;0.30;0.30;;;13.40;92.10;;;;;;6198762;28;20057;-79
2020/12/22 06:04:36;;;;;;;0.35;0.30;;;13.40;92.00;;;;;;6199490;28;20125;-79
2020/12/22 06:07:38;;;;;;;0.20;0.20;;;;;;;;;;6199146;28;20121;-76
2020/12/22 06:10:42;;;;;;;0.30;0.30;;;13.60;91.50;;;;;;6199723;28;20050;-79
2020/12/22 06:13:46;;;;;;;0.30;0.30;;;13.60;91.10;;;;;;6199127;28;20219;-79
2020/12/22 06:16:48;;;;;;;1.80;0.22;;;13.70;90.90;;;;;;6198080;28;20054;-78
2020/12/22 06:19:50;;;;;;;0.25;0.20;;;13.70;90.70;;;;;;6199580;28;20057;-78
2020/12/22 06:22:52;;;;;;;0.40;0.40;;;13.80;90.50;;;;;;6199377;28;20053;-77
2020/12/22 06:26:03;;;;;;;1.38;0.45;;;13.80;90.10;;;;;;6198966;28;20050;-78
2020/12/22 06:29:24;;;;;;;0.47;0.40;;;13.90;90.20;;;;;;6199069;28;20046;-78
2020/12/22 06:32:27;;;;;;;0.95;0.20;;;13.90;90.00;;;;;;6199631;28;20574;-77
2020/12/22 06:35:29;;;;;;;0.20;0.20;;;13.90;90.00;;;;;;6199092;28;20080;-79
2020/12/22 06:38:51;;;;;;;0.20;0.20;;;13.90;90.40;;;;;;6198685;28;20072;-79
2020/12/22 06:41:53;;;;;;;0.40;0.38;;;13.70;91.50;;;;;;6199963;28;20057;-79
2020/12/22 06:44:55;;;;;;;2.03;0.30;;;13.70;92.10;;;;;;6199154;28;20113;-79
2020/12/22 06:47:57;;;;;;;0.40;0.40;;;13.50;92.40;;;;;;6199396;28;20046;-78
2020/12/22 06:50:58;;;;;;;3.85;0.30;;;13.40;92.70;;;;;;6199375;28;20125;-77
2020/12/22 06:54:00;;;;;;;0.45;0.43;;;13.40;93.10;;;;;;6200252;28;20077;-77
2020/12/22 06:57:04;;;;;;;0.43;0.28;;;13.30;93.50;;;;;;6198672;28;20121;-77
2020/12/22 07:00:05;;;;;;;0.22;0.22;;;13.20;94.10;;;;;;6199753;28;20415;-77
2020/12/22 07:03:11;;;;;;;0.63;0.20;;;13.00;94.70;;;;;;6198262;28;20061;-78
2020/12/22 07:06:13;;;;;;;0.60;0.57;;;12.90;95.60;;;;;;6193644;28;20129;-77
2020/12/22 07:09:16;;;;;;;0.30;0.20;;;12.80;96.30;;;;;;6204068;28;20046;-78
2020/12/22 07:12:22;;;;;;;1.00;0.52;;;12.70;96.90;;;;;;6204581;28;20133;-79
2020/12/22 07:15:31;;;;;;;0.32;0.30;;;12.70;97.30;;;;;;6204296;28;20516;-79
2020/12/22 07:18:34;;;;;;;0.20;0.20;;;12.60;97.70;;;;;;6203699;28;20114;-78
2020/12/22 07:21:35;;;;;;;0.22;0.20;;;12.60;98.10;;;;;;6204390;28;20047;-78
2020/12/22 07:24:37;;;;;;;0.35;0.35;;;12.70;99.90;;;;;;6204016;28;20074;-79
2020/12/22 07:27:40;;;;;;;0.43;0.30;;;12.50;98.90;;;;;;6203600;28;20078;-79
2020/12/22 07:30:42;;;;;;;1.33;0.70;;;12.50;99.20;;;;;;6203828;28;20047;-80
2020/12/22 07:33:45;;;;;;;9.00;0.55;;;12.40;99.50;;;;;;6202911;28;20092;-80
2020/12/22 07:36:47;;;;;;;0.85;0.47;;;12.40;99.80;;;;;;6199011;28;20488;-80
2020/12/22 07:39:48;;;;;;;1.10;0.47;;;12.40;99.90;;;;;;6200638;28;20046;-80
2020/12/22 07:42:50;;;;;;;1.17;0.17;;;12.40;99.90;;;;;;6210623;28;20050;-79
2020/12/22 07:45:52;;;;;;;1.08;0.40;;;12.40;99.90;;;;;;6207498;28;20046;-78
2020/12/22 07:48:55;;;;;;;0.55;0.50;;;12.40;99.90;;;;;;6245932;23;20443;-74
2020/12/22 07:51:56;;;;;;;0.30;0.30;;;12.30;99.90;;;;;;6249341;28;20498;-74
2020/12/22 07:54:58;;;;;;;2.83;0.30;;;12.30;99.90;;;;;;6248482;28;20053;-74
2020/12/22 07:58:01;;;;;;;0.17;0.17;;;12.30;99.90;;;;;;6244921;28;20273;-77
2020/12/22 08:01:03;;;;;;;0.57;0.50;;;12.30;99.90;;;;;;6224475;28;20053;-76
2020/12/22 08:04:17;;;;;;;0.25;0.25;;;12.30;99.90;;;;;;6222428;28;20491;-74
2020/12/22 08:07:19;;;;;;;1.02;0.47;;;12.30;99.90;;;;;;6224230;28;20050;-77
2020/12/22 08:10:20;;;;;;;0.40;0.40;;;12.30;99.90;;;;;;6224099;28;20046;-77
2020/12/22 08:13:26;;;;;;;0.52;0.32;;;12.30;99.90;;;;;;6225932;28;20057;-77
2020/12/22 08:16:29;;;;;;;1.00;0.40;;;12.30;99.90;;;;;;6224796;28;20057;-76
2020/12/22 08:19:31;;;;;;;0.38;0.35;;;12.30;99.90;;;;;;6226753;28;20046;-77
2020/12/22 08:22:35;;;;;;;0.70;0.43;;;12.30;99.90;;;;;;6225885;28;20038;-77
2020/12/22 08:25:36;;;;;;;1.02;0.35;;;12.30;99.90;;;;;;6226009;28;20128;-77
2020/12/22 08:28:39;;;;;;;0.55;0.55;;;12.30;99.90;;;;;;6224227;28;20054;-76
2020/12/22 08:31:42;;;;;;;2.05;0.50;;;12.30;99.90;;;;;;6248202;28;20495;-75
2020/12/22 08:34:45;;;;;;;0.75;0.32;;;12.30;99.90;;;;;;6247980;28;20053;-76
2020/12/22 08:37:46;;;;;;;0.73;0.73;;;12.30;99.90;;;;;;6248063;28;20534;-74
2020/12/22 08:40:47;;;;;;;3.83;0.70;;;12.30;99.90;;;;;;6247506;28;20066;-75
2020/12/22 08:43:51;;;;;;;0.68;0.68;;;12.30;99.90;;;;;;6248821;28;20053;-76
2020/12/22 08:46:54;;;;;;;0.88;0.50;;;12.30;99.90;;;;;;6247684;28;20124;-75
2020/12/22 08:50:08;;;;;;;0.80;0.50;;;12.40;99.90;;;;;;6246876;28;20095;-74
2020/12/22 08:53:14;;;;;;;2.22;0.52;;;12.40;99.90;;;;;;6248317;28;20124;-75
2020/12/22 08:56:15;;;;;;;1.10;0.68;;;12.30;99.90;;;;;;6248137;28;20056;-76
2020/12/22 08:59:27;;;;;;;0.88;0.73;;;12.30;99.90;;;;;;6247036;28;20549;-77
2020/12/22 09:02:30;;;;;;;1.63;0.57;;;12.30;99.90;;;;;;6246996;28;20049;-76
2020/12/22 09:05:31;;;;;;;1.10;1.00;;;12.30;99.90;;;;;;6247918;28;20132;-76
2020/12/22 09:08:33;;;;;;;1.30;0.70;;;12.20;99.90;;;;;;6242847;28;20085;-75
2020/12/22 09:11:34;;;;;;;0.70;0.45;;;12.30;99.90;;;;;;6243143;28;20041;-76
2020/12/22 09:14:42;;;;;;;0.98;0.80;;;12.20;99.90;;;;;;6236212;28;20121;-76
2020/12/22 09:17:44;;;;;;;2.00;0.70;;;12.30;99.90;;;;;;6239138;28;20103;-77
2020/12/22 09:21:01;;;;;;;0.73;0.73;;;12.30;99.90;;;;;;6229019;28;20048;-76
2020/12/22 09:24:02;;;;;;;1.10;0.73;;;12.30;99.90;;;;;;6242047;28;20084;-75
2020/12/22 09:27:06;;;;;;;1.95;1.10;;;12.40;99.90;;;;;;6239552;28;20050;-76
2020/12/22 09:30:11;;;;;;;0.68;0.68;;;12.40;99.90;;;;;;6236477;28;20537;-76
2020/12/22 09:33:12;;;;;;;1.60;1.10;;;12.40;99.90;;;;;;6236992;28;20041;-77
2020/12/22 09:36:13;;;;;;;2.38;0.90;;;12.40;99.90;;;;;;6239217;28;20046;-75
2020/12/22 09:39:15;;;;;;;0.93;0.77;;;12.50;99.90;;;;;;6234916;28;20520;-77
2020/12/22 09:42:16;;;;;;;1.17;0.55;;;12.50;99.90;;;;;;6241669;28;20060;-76
2020/12/22 09:45:18;;;;;;;1.42;1.08;;;12.60;99.90;;;;;;6237642;28;20554;-76
2020/12/22 09:48:20;;;;;;;0.70;0.70;;;12.60;99.90;;;;;;6241534;28;20614;-76
2020/12/22 09:51:21;;;;;;;1.00;0.90;;;12.70;99.90;;;;;;6235990;28;20050;-75
2020/12/22 09:54:22;;;;;;;1.75;0.77;;;12.70;99.90;;;;;;6236645;28;20153;-76
2020/12/22 09:57:24;;;;;;;1.40;1.00;;;12.70;99.90;;;;;;6234768;28;20575;-76
2020/12/22 10:00:26;;;;;;;1.50;1.00;;;12.70;99.90;;;;;;6233920;28;20057;-75
2020/12/22 10:03:27;;;;;;;0.80;0.80;;;12.70;99.90;;;;;;6240283;28;20502;-76
2020/12/22 10:06:29;;;;;;;1.75;0.73;;;12.70;99.90;;;;;;6237633;28;20045;-76
2020/12/22 10:09:30;;;;;;;1.10;0.85;;;12.60;99.90;;;;;;6234961;28;20053;-76
2020/12/22 10:12:31;;;;;;;2.60;1.00;;;12.60;99.90;;;;;;6237343;28;20423;-76
2020/12/22 10:15:33;;;;;;;0.75;0.60;;;12.60;99.90;;;;;;6241714;28;20045;-77
2020/12/22 10:18:35;;;;;;;2.78;0.70;;;12.60;99.90;;;;;;6233937;28;20055;-76
2020/12/22 10:21:36;;;;;;;1.17;0.70;;;12.60;99.90;;;;;;6233069;28;20106;-76
2020/12/22 10:24:38;;;;;;;2.13;0.82;;;12.60;99.90;;;;;;6235765;28;20553;-76
2020/12/22 10:27:39;;;;;;;0.85;0.73;;;12.70;99.90;;;;;;6229632;28;20121;-76
2020/12/22 10:30:41;;;;;;;2.28;0.82;;;12.70;99.90;;;;;;6230129;28;20053;-76
2020/12/22 10:33:43;;;;;;;3.00;0.73;;;12.70;99.90;;;;;;6234656;28;20045;-76
2020/12/22 10:36:46;;;;;;;7.60;1.45;;;12.70;99.90;;;;;;6232393;28;20056;-76
2020/12/22 10:39:51;;;;;;;2.33;0.70;;;12.70;99.90;;;;;;6236011;28;20049;-76
2020/12/22 10:42:52;;;;;;;0.35;0.35;;;12.60;99.90;;;;;;6239119;28;20122;-77
2020/12/22 10:45:57;;;;;;;0.80;0.52;;;12.70;99.90;;;;;;6236136;28;20045;-77
2020/12/22 10:48:58;;;;;;;0.93;0.80;;;12.70;99.90;;;;;;6235375;28;20050;-77
2020/12/22 10:52:00;;;;;;;0.98;0.70;;;12.70;99.90;;;;;;6247760;28;20450;-78
2020/12/22 10:55:02;;;;;;;2.97;0.98;;;12.70;99.90;;;;;;6245996;28;20046;-78
2020/12/22 10:58:03;;;;;;;5.70;1.30;;;12.70;99.90;;;;;;6245775;28;20120;-77
2020/12/22 11:01:06;;;;;;;1.05;1.02;;;12.70;99.90;;;;;;6233881;28;20593;-76
2020/12/22 11:04:07;;;;;;;2.10;1.15;;;12.70;99.90;;;;;;6238083;28;20056;-76
2020/12/22 11:07:12;;;;;;;1.13;0.65;;;12.70;99.90;;;;;;6237359;28;20044;-76
2020/12/22 11:10:14;;;;;;;0.60;0.60;;;12.80;99.90;;;;;;6232020;28;20046;-76
2020/12/22 11:13:15;;;;;;;1.30;0.98;;;12.80;99.90;;;;;;6237291;28;20132;-76
2020/12/22 11:16:24;;;;;;;1.88;1.20;;;12.70;99.90;;;;;;6245863;28;20481;-77
2020/12/22 11:19:25;;;;;;;1.25;0.70;;;12.70;99.90;;;;;;6237407;28;20114;-76
2020/12/22 11:22:27;;;;;;;0.93;0.55;;;12.70;99.90;;;;;;6240407;28;20089;-76
2020/12/22 11:25:28;;;;;;;1.40;1.00;;;12.70;99.90;;;;;;6236849;28;20045;-76
2020/12/22 11:28:29;;;;;;;2.78;1.20;;;12.70;99.90;;;;;;6239808;28;20065;-77
2020/12/22 11:31:31;;;;;;;2.00;0.90;;;13.00;99.90;;;;;;6244437;28;20518;-78
2020/12/22 11:34:33;;;;;;;1.27;0.90;;;12.80;99.90;;;;;;6250082;28;20430;-78
2020/12/22 11:37:35;;;;;;;1.48;0.90;;;12.90;99.90;;;;;;6251014;28;20514;-78
2020/12/22 11:40:36;;;;;;;1.08;0.70;;;12.90;99.90;;;;;;6243284;28;20053;-78
2020/12/22 11:43:38;;;;;;;1.40;1.02;;;12.90;99.90;;;;;;6253747;28;20455;-78
2020/12/22 11:46:43;;;;;;;1.10;0.98;;;12.90;99.90;;;;;;6246675;28;20061;-77
2020/12/22 11:49:44;;;;;;;3.15;0.80;;;12.90;99.90;;;;;;6245765;28;20046;-77
2020/12/22 11:52:45;;;;;;;1.30;1.20;;;12.90;99.90;;;;;;6244804;28;20053;-77
2020/12/22 11:55:47;;;;;;;1.27;1.17;;;13.00;99.90;;;;;;6243060;28;20056;-77
2020/12/22 11:58:49;;;;;;;1.58;1.10;;;;;;;;;;6241931;28;20446;-77
2020/12/22 12:01:51;;;;;;;2.40;0.90;;;13.10;99.90;;;;;;6247965;28;20623;-79
2020/12/22 12:04:52;;;;;;;1.30;0.80;;;13.10;99.90;;;;;;6250205;28;20443;-77
2020/12/22 12:07:53;;;;;;;0.77;0.77;;;13.10;99.90;;;;;;6245968;28;20057;-77
2020/12/22 12:10:55;;;;;;;1.58;0.95;;;13.10;99.90;;;;;;6246933;28;20045;-77
2020/12/22 12:13:56;;;;;;;1.40;1.05;;;13.10;99.90;;;;;;6244809;28;20120;-77
2020/12/22 12:16:58;;;;;;;2.03;0.80;;;13.30;99.90;;;;;;6244054;28;20065;-78
2020/12/22 12:19:59;;;;;;;1.85;1.10;;;13.30;99.90;;;;;;6243449;28;20136;-77
2020/12/22 12:23:01;;;;;;;0.93;0.85;;;13.40;99.90;;;;;;6248105;28;20037;-78
2020/12/22 12:26:05;;;;;;;1.60;1.00;;;13.40;99.90;;;;;;6244200;28;20484;-78
2020/12/22 12:29:07;;;;;;;4.10;2.92;;;13.40;99.90;;;;;;6243513;28;20086;-77
2020/12/22 12:32:09;;;;;;;0.93;0.77;;;13.30;99.90;;;;;;6244374;28;20485;-77
2020/12/22 12:35:11;;;;;;;2.42;1.13;;;13.30;99.90;;;;;;6244917;28;20400;-78
2020/12/22 12:38:12;;;;;;;0.88;0.65;;;13.30;99.90;;;;;;6244612;28;20119;-77
2020/12/22 12:41:13;;;;;;;2.45;0.77;;;13.30;99.90;;;;;;6237610;28;20096;-78
2020/12/22 12:44:15;;;;;;;1.60;1.02;;;13.20;99.90;;;;;;6248483;28;20582;-77
2020/12/22 12:47:17;;;;;;;1.38;1.27;;;13.40;99.90;;;;;;6243955;28;20061;-77
2020/12/22 12:50:19;;;;;;;0.93;0.93;;;13.30;99.90;;;;;;6235192;28;20110;-77
2020/12/22 12:53:20;;;;;;;1.30;1.20;;;13.30;99.90;;;;;;6241316;28;20060;-78
2020/12/22 12:56:21;;;;;;;1.23;1.02;;;13.30;99.90;;;;;;6242056;28;20059;-78
2020/12/22 12:59:23;;;;;;;2.85;1.45;;;13.30;99.90;;;;;;6242594;28;20140;-77
2020/12/22 13:02:25;;;;;;;2.15;1.13;;;13.30;99.90;;;;;;6235157;28;20063;-77
2020/12/22 13:05:26;;;;;;;4.60;1.20;;;13.30;99.90;;;;;;6238312;28;20139;-77
2020/12/22 13:08:28;;;;;;;2.63;1.52;;;13.30;99.90;;;;;;6229189;28;20061;-77
2020/12/22 13:11:31;;;;;;;2.40;1.60;;;13.40;99.90;;;;;;6234564;28;20136;-77
2020/12/22 13:14:33;;;;;;;1.88;1.27;;;13.40;99.90;;;;;;6240981;28;20092;-77
2020/12/22 13:17:35;;;;;;;2.13;1.20;;;13.40;99.90;;;;;;6231995;28;20046;-77
2020/12/22 13:20:37;;;;;;;3.13;1.10;;;13.40;99.90;;;;;;6238360;28;20085;-77
2020/12/22 13:23:38;;;;;;;2.15;1.55;;;13.40;99.90;;;;;;6238812;28;20121;-77
2020/12/22 13:26:42;;;;;;;2.67;2.47;;;13.40;99.90;;;;;;6237202;28;20054;-77
2020/12/22 13:29:43;;;;;;;1.48;1.20;;;13.40;99.90;;;;;;6241882;28;20582;-77
2020/12/22 13:32:47;;;;;;;1.95;1.70;;;13.40;99.90;;;;;;6230650;28;20060;-77
2020/12/22 13:35:48;;;;;;;6.57;6.18;;;13.40;99.90;;;;;;6239764;28;20049;-77
2020/12/22 13:38:49;;;;;;;3.65;3.35;;;13.40;99.90;;;;;;6240835;28;20088;-77
2020/12/22 13:41:52;;;;;;;5.20;4.80;;;13.40;99.90;;;;;;6234464;28;20115;-77
2020/12/22 13:44:53;;;;;;;7.38;2.90;;;13.40;99.90;;;;;;6236158;28;20044;-77
2020/12/22 13:47:55;;;;;;;1.70;1.10;;;13.50;99.90;;;;;;6235236;28;20556;-78
2020/12/22 13:50:56;;;;;;;43.40;23.67;;;13.40;99.90;;;;;;6237421;28;20092;-77
2020/12/22 13:53:58;;;;;;;2.53;1.17;;;13.40;99.90;;;;;;6238612;28;20046;-77
2020/12/22 13:56:59;;;;;;;1.90;1.08;;;13.40;99.90;;;;;;6234187;28;20144;-77
2020/12/22 14:00:00;;;;;;;1.10;0.95;;;13.50;99.90;;;;;;6237942;28;20483;-77
2020/12/22 14:03:03;;;;;;;2.20;1.15;;;13.50;99.90;;;;;;6237460;28;20052;-77
2020/12/22 14:06:04;;;;;;;2.00;1.80;;;13.50;99.90;;;;;;6237607;28;20473;-77
2020/12/22 14:09:06;;;;;;;2.03;1.30;;;13.50;99.90;;;;;;6237156;28;20041;-77
2020/12/22 14:12:09;;;;;;;4.05;1.65;;;13.50;99.90;;;;;;6239452;28;20465;-77
2020/12/22 14:15:10;;;;;;;6.85;2.72;;;13.50;99.90;;;;;;6236680;28;20129;-77
2020/12/22 14:18:13;;;;;;;3.20;1.63;;;13.50;99.90;;;;;;6239188;28;20171;-77
2020/12/22 14:21:15;;;;;;;1.48;1.15;;;13.50;99.90;;;;;;6242916;28;20099;-78
2020/12/22 14:24:16;;;;;;;0.80;0.80;;;13.40;99.90;;;;;;6238354;28;20060;-76
2020/12/22 14:27:18;;;;;;;2.63;2.42;;;13.40;99.90;;;;;;6237094;28;20136;-78
2020/12/22 14:30:19;;;;;;;2.45;1.67;;;13.50;99.90;;;;;;6237140;28;20181;-79
2020/12/22 14:33:21;;;;;;;1.67;1.58;;;13.50;99.90;;;;;;6234843;28;20048;-77
2020/12/22 14:36:22;;;;;;;2.03;1.15;;;13.50;99.90;;;;;;6243620;28;20507;-78
2020/12/22 14:39:24;;;;;;;1.33;1.05;;;13.40;99.90;;;;;;6241967;28;20060;-78
2020/12/22 14:42:25;;;;;;;1.75;1.20;;;13.40;99.90;;;;;;6248843;28;20431;-78
2020/12/22 14:45:26;;;;;;;2.47;0.98;;;13.40;99.90;;;;;;6236169;28;20049;-77
2020/12/22 14:48:29;;;;;;;1.25;1.08;;;13.40;99.90;;;;;;6244440;28;20108;-77
2020/12/22 14:51:30;;;;;;;0.95;0.85;;;13.40;99.90;;;;;;6236888;28;20069;-78
2020/12/22 14:54:31;;;;;;;1.52;1.08;;;13.40;99.90;;;;;;6245292;28;20101;-77
2020/12/22 14:57:32;;;;;;;3.20;1.60;;;13.40;99.90;;;;;;6245398;28;20042;-77
2020/12/22 15:00:34;;;;;;;1.42;1.23;;;13.40;99.90;;;;;;6240884;28;20075;-78
2020/12/22 15:03:36;;;;;;;1.55;1.40;;;13.40;99.90;;;;;;6241458;28;20049;-78
2020/12/22 15:06:37;;;;;;;2.83;1.33;;;13.50;99.90;;;;;;6242076;28;20064;-78
2020/12/22 15:09:38;;;;;;;2.97;1.65;;;13.50;99.90;;;;;;6249262;28;20053;-77
2020/12/22 15:12:40;;;;;;;1.95;1.35;;;13.50;99.90;;;;;;6257481;28;20049;-79
2020/12/22 15:15:41;;;;;;;2.08;1.88;;;13.50;99.90;;;;;;6251209;28;20050;-80
2020/12/22 15:18:43;;;;;;;2.50;1.60;;;13.40;99.90;;;;;;6251135;28;20049;-79
2020/12/22 15:21:45;;;;;;;2.25;1.40;;;13.50;99.90;;;;;;6258087;28;20137;-79
2020/12/22 15:24:46;;;;;;;3.92;2.78;;;13.50;99.90;;;;;;6254658;28;20100;-79
2020/12/22 15:27:47;;;;;;;9.43;4.30;;;13.50;99.90;;;;;;6251989;28;20600;-79
2020/12/22 15:30:49;;;;;;;3.53;2.40;;;13.50;99.90;;;;;;6249937;28;20053;-79
2020/12/22 15:33:51;;;;;;;5.60;3.95;;;13.40;99.90;;;;;;6253367;28;20056;-78
2020/12/22 15:36:53;;;;;;;4.47;2.65;;;13.40;99.90;;;;;;6255794;28;20041;-79
2020/12/22 15:39:54;;;;;;;8.20;4.57;;;13.50;99.90;;;;;;6248415;28;20049;-78
2020/12/22 15:42:55;;;;;;;1.40;1.20;;;13.20;99.90;;;;;;6243074;28;20042;-79
2020/12/22 15:45:57;;;;;;;6.25;4.55;;;13.40;99.90;;;;;;6261696;28;20061;-78
2020/12/22 15:48:59;;;;;;;4.85;2.13;;;13.40;99.90;;;;;;6261448;28;20057;-79